sensor_id;sensor_type;location;lat;lon;timestamp;temperature;humidity
79694;DHT22;69165;52.714;13.200;2023-05-20T05:01:53;9.80;99.90
79694;DHT22;69165;52.714;13.200;2023-05-20T05:03:55;9.80;99.90
79694;DHT22;69165;52.714;13.200;2023-05-20T05:05:57;9.90;99.90
79694;DHT22;69165;52.714;13.200;2023-05-20T05:07:58;9.90;99.90
79694;DHT22;69165;52.714;13.200;2023-05-20T05:10:00;9.90;99.90
79694;DHT22;69165;52.714;13.200;2023-05-20T05:12:03;9.90;99.90
79694;DHT22;69165;52.714;13.200;2023-05-20T05:14:05;9.80;99.90
79694;DHT22;69165;52.714;13.200;2023-05-20T05:16:07;9.90;99.90
79694;DHT22;69165;52.714;13.200;2023-05-20T05:18:09;9.90;99.90
79694;DHT22;69165;52.714;13.200;2023-05-20T05:20:11;9.90;99.90
79694;DHT22;69165;52.714;13.200;2023-05-20T05:22:14;9.80;99.90
79694;DHT22;69165;52.714;13.200;2023-05-20T05:24:16;9.80;99.90
79694;DHT22;69165;52.714;13.200;2023-05-20T05:26:18;9.80;99.90
79694;DHT22;69165;52.714;13.200;2023-05-20T05:28:19;9.90;99.90
79694;DHT22;69165;52.714;13.200;2023-05-20T05:30:22;9.90;99.90
79694;DHT22;69165;52.714;13.200;2023-05-20T05:32:23;9.90;99.90
79694;DHT22;69165;52.714;13.200;2023-05-20T05:34:25;9.90;99.90
79694;DHT22;69165;52.714;13.200;2023-05-20T05:36:26;9.90;99.90
79694;DHT22;69165;52.714;13.200;2023-05-20T05:38:28;10.00;99.90
79694;DHT22;69165;52.714;13.200;2023-05-20T05:40:30;9.90;99.90
79694;DHT22;69165;52.714;13.200;2023-05-20T05:42:31;9.90;99.90
79694;DHT22;69165;52.714;13.200;2023-05-20T05:44:33;10.00;99.90
79694;DHT22;69165;52.714;13.200;2023-05-20T05:46:35;10.00;99.90
79694;DHT22;69165;52.714;13.200;2023-05-20T05:48:37;10.00;99.90
79694;DHT22;69165;52.714;13.200;2023-05-20T05:50:42;10.00;99.90
79694;DHT22;69165;52.714;13.200;2023-05-20T05:54:25;10.10;99.90
79694;DHT22;69165;52.714;13.200;2023-05-20T05:56:28;10.20;99.90
79694;DHT22;69165;52.714;13.200;2023-05-20T05:58:30;10.20;99.90
79694;DHT22;69165;52.714;13.200;2023-05-20T06:00:32;10.20;99.90
79694;DHT22;69165;52.714;13.200;2023-05-20T06:02:34;10.30;99.90
79694;DHT22;69165;52.714;13.200;2023-05-20T06:04:36;10.20;99.90
79694;DHT22;69165;52.714;13.200;2023-05-20T06:06:38;10.30;99.90
79694;DHT22;69165;52.714;13.200;2023-05-20T06:08:40;10.40;99.90
79694;DHT22;69165;52.714;13.200;2023-05-20T06:10:46;10.40;99.90
79694;DHT22;69165;52.714;13.200;2023-05-20T06:12:47;10.40;99.90
79694;DHT22;69165;52.714;13.200;2023-05-20T06:14:49;10.50;99.90
79694;DHT22;69165;52.714;13.200;2023-05-20T06:16:51;10.50;99.90
79694;DHT22;69165;52.714;13.200;2023-05-20T06:18:52;10.50;99.90
79694;DHT22;69165;52.714;13.200;2023-05-20T06:20:56;10.60;99.90
79694;DHT22;69165;52.714;13.200;2023-05-20T06:22:57;10.60;99.90
79694;DHT22;69165;52.714;13.200;2023-05-20T06:24:58;10.70;99.90
79694;DHT22;69165;52.714;13.200;2023-05-20T06:27:00;10.70;99.90
79694;DHT22;69165;52.714;13.200;2023-05-20T06:29:02;10.70;99.90
79694;DHT22;69165;52.714;13.200;2023-05-20T06:31:04;10.70;99.90
79694;DHT22;69165;52.714;13.200;2023-05-20T06:33:05;10.70;99.90
79694;DHT22;69165;52.714;13.200;2023-05-20T06:35:07;10.70;99.90
79694;DHT22;69165;52.714;13.200;2023-05-20T06:37:09;10.80;99.90
79694;DHT22;69165;52.714;13.200;2023-05-20T06:39:11;10.90;99.90
79694;DHT22;69165;52.714;13.200;2023-05-20T06:41:14;11.00;99.90
79694;DHT22;69165;52.714;13.200;2023-05-20T06:43:15;11.00;99.90
79694;DHT22;69165;52.714;13.200;2023-05-20T06:45:17;11.00;99.90
79694;DHT22;69165;52.714;13.200;2023-05-20T06:47:19;11.10;99.90
79694;DHT22;69165;52.714;13.200;2023-05-20T06:49:22;11.10;99.90
79694;DHT22;69165;52.714;13.200;2023-05-20T06:51:23;11.10;99.90
79694;DHT22;69165;52.714;13.200;2023-05-20T06:53:25;11.20;99.90
79694;DHT22;69165;52.714;13.200;2023-05-20T06:55:26;11.20;99.90
79694;DHT22;69165;52.714;13.200;2023-05-20T06:57:29;11.30;99.90
79694;DHT22;69165;52.714;13.200;2023-05-20T06:59:31;11.40;99.90
79694;DHT22;69165;52.714;13.200;2023-05-20T07:01:34;11.40;99.90
79694;DHT22;69165;52.714;13.200;2023-05-20T07:03:36;11.50;99.90
79694;DHT22;69165;52.714;13.200;2023-05-20T07:05:38;11.50;99.90
79694;DHT22;69165;52.714;13.200;2023-05-20T07:07:39;11.60;99.90
79694;DHT22;69165;52.714;13.200;2023-05-20T07:09:41;11.60;99.90
79694;DHT22;69165;52.714;13.200;2023-05-20T07:11:42;11.50;99.90
79694;DHT22;69165;52.714;13.200;2023-05-20T07:13:44;11.50;99.90
79694;DHT22;69165;52.714;13.200;2023-05-20T07:15:46;11.50;99.90
79694;DHT22;69165;52.714;13.200;2023-05-20T07:20:00;11.40;99.90
79694;DHT22;69165;52.714;13.200;2023-05-20T07:22:02;11.50;99.90
79694;DHT22;69165;52.714;13.200;2023-05-20T07:24:04;11.40;99.90
79694;DHT22;69165;52.714;13.200;2023-05-20T07:26:07;11.50;99.90
79694;DHT22;69165;52.714;13.200;2023-05-20T07:28:09;11.50;99.90
79694;DHT22;69165;52.714;13.200;2023-05-20T07:30:10;11.50;99.90
79694;DHT22;69165;52.714;13.200;2023-05-20T07:32:12;11.50;99.90
79694;DHT22;69165;52.714;13.200;2023-05-20T07:34:14;11.60;99.90
79694;DHT22;69165;52.714;13.200;2023-05-20T07:36:15;11.50;99.90
79694;DHT22;69165;52.714;13.200;2023-05-20T07:38:16;11.60;99.90
79694;DHT22;69165;52.714;13.200;2023-05-20T07:40:18;11.60;99.90
79694;DHT22;69165;52.714;13.200;2023-05-20T07:42:20;11.70;99.90
79694;DHT22;69165;52.714;13.200;2023-05-20T07:44:21;11.70;99.90
79694;DHT22;69165;52.714;13.200;2023-05-20T07:46:23;11.80;99.90
79694;DHT22;69165;52.714;13.200;2023-05-20T07:48:25;11.90;99.90
79694;DHT22;69165;52.714;13.200;2023-05-20T07:50:27;12.00;99.90
79694;DHT22;69165;52.714;13.200;2023-05-20T07:52:30;12.10;99.90
79694;DHT22;69165;52.714;13.200;2023-05-20T07:54:33;12.10;99.90
79694;DHT22;69165;52.714;13.200;2023-05-20T07:56:33;12.10;99.90
79694;DHT22;69165;52.714;13.200;2023-05-20T07:58:34;12.10;99.90
79694;DHT22;69165;52.714;13.200;2023-05-20T08:00:37;12.10;99.90
79694;DHT22;69165;52.714;13.200;2023-05-20T08:02:38;12.10;99.90
79694;DHT22;69165;52.714;13.200;2023-05-20T08:04:40;12.10;99.90
79694;DHT22;69165;52.714;13.200;2023-05-20T08:06:41;12.20;99.90
79694;DHT22;69165;52.714;13.200;2023-05-20T08:08:43;12.30;99.90
79694;DHT22;69165;52.714;13.200;2023-05-20T08:10:45;12.30;99.90
79694;DHT22;69165;52.714;13.200;2023-05-20T08:12:47;12.30;99.90
79694;DHT22;69165;52.714;13.200;2023-05-20T08:14:48;12.40;99.90
79694;DHT22;69165;52.714;13.200;2023-05-20T08:16:49;12.50;99.90
79694;DHT22;69165;52.714;13.200;2023-05-20T08:18:51;12.60;99.90
79694;DHT22;69165;52.714;13.200;2023-05-20T08:20:53;12.70;99.90
79694;DHT22;69165;52.714;13.200;2023-05-20T08:22:55;12.80;99.90
79694;DHT22;69165;52.714;13.200;2023-05-20T08:24:58;12.90;99.90
79694;DHT22;69165;52.714;13.200;2023-05-20T08:27:00;12.90;99.90
79694;DHT22;69165;52.714;13.200;2023-05-20T08:29:02;13.00;99.90
79694;DHT22;69165;52.714;13.200;2023-05-20T08:31:04;12.90;99.90
79694;DHT22;69165;52.714;13.200;2023-05-20T08:33:05;13.00;99.90
79694;DHT22;69165;52.714;13.200;2023-05-20T08:35:08;13.10;99.90
79694;DHT22;69165;52.714;13.200;2023-05-20T08:37:09;13.10;99.90
79694;DHT22;69165;52.714;13.200;2023-05-20T08:39:11;13.20;99.90
79694;DHT22;69165;52.714;13.200;2023-05-20T08:41:12;13.20;99.90
79694;DHT22;69165;52.714;13.200;2023-05-20T08:43:14;13.30;99.90
79694;DHT22;69165;52.714;13.200;2023-05-20T08:45:17;13.40;99.90
79694;DHT22;69165;52.714;13.200;2023-05-20T08:47:19;13.50;99.90
79694;DHT22;69165;52.714;13.200;2023-05-20T08:51:21;13.60;99.90
79694;DHT22;69165;52.714;13.200;2023-05-20T08:53:23;13.60;99.90
79694;DHT22;69165;52.714;13.200;2023-05-20T08:55:29;13.60;99.90
79694;DHT22;69165;52.714;13.200;2023-05-20T08:57:27;13.70;99.90
79694;DHT22;69165;52.714;13.200;2023-05-20T08:59:28;13.80;99.90
79694;DHT22;69165;52.714;13.200;2023-05-20T09:01:29;13.90;99.90
79694;DHT22;69165;52.714;13.200;2023-05-20T09:03:31;14.00;99.90
79694;DHT22;69165;52.714;13.200;2023-05-20T09:05:32;14.10;99.90
79694;DHT22;69165;52.714;13.200;2023-05-20T09:07:33;14.10;99.90
79694;DHT22;69165;52.714;13.200;2023-05-20T09:09:35;14.20;99.90
79694;DHT22;69165;52.714;13.200;2023-05-20T09:11:38;14.20;99.90
79694;DHT22;69165;52.714;13.200;2023-05-20T09:13:40;14.30;99.90
79694;DHT22;69165;52.714;13.200;2023-05-20T09:15:41;14.30;99.90
79694;DHT22;69165;52.714;13.200;2023-05-20T09:17:42;14.40;99.90
79694;DHT22;69165;52.714;13.200;2023-05-20T09:19:46;14.40;99.90
79694;DHT22;69165;52.714;13.200;2023-05-20T09:21:46;14.40;99.90
79694;DHT22;69165;52.714;13.200;2023-05-20T09:23:48;14.40;99.90
79694;DHT22;69165;52.714;13.200;2023-05-20T09:25:50;14.50;99.90
79694;DHT22;69165;52.714;13.200;2023-05-20T09:27:53;14.50;99.90
79694;DHT22;69165;52.714;13.200;2023-05-20T09:29:54;14.50;99.90
79694;DHT22;69165;52.714;13.200;2023-05-20T09:31:56;14.40;99.90
79694;DHT22;69165;52.714;13.200;2023-05-20T09:33:57;14.50;99.90
79694;DHT22;69165;52.714;13.200;2023-05-20T09:36:04;14.40;99.90
79694;DHT22;69165;52.714;13.200;2023-05-20T09:38:05;14.40;99.90
79694;DHT22;69165;52.714;13.200;2023-05-20T09:40:07;14.50;99.90
79694;DHT22;69165;52.714;13.200;2023-05-20T09:42:14;14.60;99.90
79694;DHT22;69165;52.714;13.200;2023-05-20T09:44:13;14.70;99.90
79694;DHT22;69165;52.714;13.200;2023-05-20T09:46:14;14.80;99.90
79694;DHT22;69165;52.714;13.200;2023-05-20T09:48:15;14.80;99.90
79694;DHT22;69165;52.714;13.200;2023-05-20T09:50:17;14.90;99.90
79694;DHT22;69165;52.714;13.200;2023-05-20T09:52:18;15.00;99.90
79694;DHT22;69165;52.714;13.200;2023-05-20T09:54:19;15.00;99.90
79694;DHT22;69165;52.714;13.200;2023-05-20T09:56:22;15.10;99.90
79694;DHT22;69165;52.714;13.200;2023-05-20T09:58:22;15.10;99.90
79694;DHT22;69165;52.714;13.200;2023-05-20T10:00:24;15.00;99.90
79694;DHT22;69165;52.714;13.200;2023-05-20T10:02:25;15.00;99.90
79694;DHT22;69165;52.714;13.200;2023-05-20T10:04:26;15.00;99.90
79694;DHT22;69165;52.714;13.200;2023-05-20T10:06:31;15.00;99.90
79694;DHT22;69165;52.714;13.200;2023-05-20T10:09:42;14.90;99.90
79694;DHT22;69165;52.714;13.200;2023-05-20T10:10:55;14.90;99.90
79694;DHT22;69165;52.714;13.200;2023-05-20T10:13:05;15.10;99.90
79694;DHT22;69165;52.714;13.200;2023-05-20T10:15:25;15.10;99.90
79694;DHT22;69165;52.714;13.200;2023-05-20T10:17:27;15.10;99.90
79694;DHT22;69165;52.714;13.200;2023-05-20T10:21:26;15.10;99.90
79694;DHT22;69165;52.714;13.200;2023-05-20T10:23:28;15.20;99.90
79694;DHT22;69165;52.714;13.200;2023-05-20T10:25:29;15.20;99.90
79694;DHT22;69165;52.714;13.200;2023-05-20T10:27:40;15.20;99.90
79694;DHT22;69165;52.714;13.200;2023-05-20T10:29:41;15.20;99.90
79694;DHT22;69165;52.714;13.200;2023-05-20T10:31:48;15.20;99.90
79694;DHT22;69165;52.714;13.200;2023-05-20T10:33:51;15.20;99.90
79694;DHT22;69165;52.714;13.200;2023-05-20T10:35:50;15.20;99.90
79694;DHT22;69165;52.714;13.200;2023-05-20T10:37:54;15.20;99.90
79694;DHT22;69165;52.714;13.200;2023-05-20T10:42:06;15.20;99.90
79694;DHT22;69165;52.714;13.200;2023-05-20T10:44:07;15.20;99.90
79694;DHT22;69165;52.714;13.200;2023-05-20T10:46:16;15.20;99.90
79694;DHT22;69165;52.714;13.200;2023-05-20T10:48:10;15.30;99.90
79694;DHT22;69165;52.714;13.200;2023-05-20T10:50:24;15.40;99.90
79694;DHT22;69165;52.714;13.200;2023-05-20T10:52:13;15.40;99.90
79694;DHT22;69165;52.714;13.200;2023-05-20T10:54:14;15.40;99.90
79694;DHT22;69165;52.714;13.200;2023-05-20T10:56:16;15.40;99.90
79694;DHT22;69165;52.714;13.200;2023-05-20T10:58:18;15.40;99.90
79694;DHT22;69165;52.714;13.200;2023-05-20T11:00:20;15.30;99.90
79694;DHT22;69165;52.714;13.200;2023-05-20T11:02:22;15.30;99.90
79694;DHT22;69165;52.714;13.200;2023-05-20T11:04:23;15.40;99.90
79694;DHT22;69165;52.714;13.200;2023-05-20T11:06:25;15.40;99.90
79694;DHT22;69165;52.714;13.200;2023-05-20T11:08:28;15.40;99.90
79694;DHT22;69165;52.714;13.200;2023-05-20T11:10:28;15.40;99.90
79694;DHT22;69165;52.714;13.200;2023-05-20T11:12:31;15.50;99.90
79694;DHT22;69165;52.714;13.200;2023-05-20T11:14:32;15.50;99.90
79694;DHT22;69165;52.714;13.200;2023-05-20T11:16:33;15.40;99.90
79694;DHT22;69165;52.714;13.200;2023-05-20T11:18:35;15.50;99.90
79694;DHT22;69165;52.714;13.200;2023-05-20T11:20:37;15.50;99.90
79694;DHT22;69165;52.714;13.200;2023-05-20T11:22:38;15.50;99.90
79694;DHT22;69165;52.714;13.200;2023-05-20T11:24:39;15.60;99.90
79694;DHT22;69165;52.714;13.200;2023-05-20T11:26:41;15.70;99.90
79694;DHT22;69165;52.714;13.200;2023-05-20T11:28:42;15.70;99.90
79694;DHT22;69165;52.714;13.200;2023-05-20T11:30:43;15.80;99.90
79694;DHT22;69165;52.714;13.200;2023-05-20T11:33:00;15.90;99.90
79694;DHT22;69165;52.714;13.200;2023-05-20T11:35:02;16.00;99.90
79694;DHT22;69165;52.714;13.200;2023-05-20T11:37:06;16.00;99.90
79694;DHT22;69165;52.714;13.200;2023-05-20T11:39:08;16.20;99.90
79694;DHT22;69165;52.714;13.200;2023-05-20T11:41:08;16.50;99.90
79694;DHT22;69165;52.714;13.200;2023-05-20T11:43:10;16.60;99.90
79694;DHT22;69165;52.714;13.200;2023-05-20T11:45:12;16.80;99.90
79694;DHT22;69165;52.714;13.200;2023-05-20T11:47:12;16.90;99.90
79694;DHT22;69165;52.714;13.200;2023-05-20T11:51:30;17.10;99.90
79694;DHT22;69165;52.714;13.200;2023-05-20T11:53:32;17.20;99.90
79694;DHT22;69165;52.714;13.200;2023-05-20T11:55:34;17.10;99.90
79694;DHT22;69165;52.714;13.200;2023-05-20T11:57:34;17.00;99.90
79694;DHT22;69165;52.714;13.200;2023-05-20T11:59:36;17.10;99.90
79694;DHT22;69165;52.714;13.200;2023-05-20T12:01:37;17.00;99.90
79694;DHT22;69165;52.714;13.200;2023-05-20T12:03:38;17.00;99.90
79694;DHT22;69165;52.714;13.200;2023-05-20T12:05:41;17.00;99.90
79694;DHT22;69165;52.714;13.200;2023-05-20T12:07:42;16.90;99.90
79694;DHT22;69165;52.714;13.200;2023-05-20T12:09:44;16.80;99.90
79694;DHT22;69165;52.714;13.200;2023-05-20T12:11:47;16.80;99.90
79694;DHT22;69165;52.714;13.200;2023-05-20T12:13:48;16.80;99.90
79694;DHT22;69165;52.714;13.200;2023-05-20T12:15:49;16.80;99.90
79694;DHT22;69165;52.714;13.200;2023-05-20T12:17:52;16.90;99.90
79694;DHT22;69165;52.714;13.200;2023-05-20T12:19:52;17.10;99.90
79694;DHT22;69165;52.714;13.200;2023-05-20T12:21:54;17.20;99.90
79694;DHT22;69165;52.714;13.200;2023-05-20T12:23:56;17.20;99.90
79694;DHT22;69165;52.714;13.200;2023-05-20T12:25:57;17.10;99.90
79694;DHT22;69165;52.714;13.200;2023-05-20T12:28:00;16.90;99.90
79694;DHT22;69165;52.714;13.200;2023-05-20T12:30:00;16.90;99.90
79694;DHT22;69165;52.714;13.200;2023-05-20T12:32:01;17.00;99.90
79694;DHT22;69165;52.714;13.200;2023-05-20T12:34:02;17.30;99.90
79694;DHT22;69165;52.714;13.200;2023-05-20T12:36:04;17.50;99.90
79694;DHT22;69165;52.714;13.200;2023-05-20T12:38:06;17.50;99.90
79694;DHT22;69165;52.714;13.200;2023-05-20T12:40:08;17.50;99.90
79694;DHT22;69165;52.714;13.200;2023-05-20T12:42:09;17.40;99.90
79694;DHT22;69165;52.714;13.200;2023-05-20T12:44:11;17.30;99.90
79694;DHT22;69165;52.714;13.200;2023-05-20T12:46:12;17.20;99.90
79694;DHT22;69165;52.714;13.200;2023-05-20T12:48:14;17.20;99.90
79694;DHT22;69165;52.714;13.200;2023-05-20T12:50:16;17.40;99.90
79694;DHT22;69165;52.714;13.200;2023-05-20T12:52:18;17.50;99.90
79694;DHT22;69165;52.714;13.200;2023-05-20T12:54:19;17.60;99.90
79694;DHT22;69165;52.714;13.200;2023-05-20T12:56:20;17.60;99.90
79694;DHT22;69165;52.714;13.200;2023-05-20T12:58:21;17.60;99.90
79694;DHT22;69165;52.714;13.200;2023-05-20T13:00:23;17.60;99.90
79694;DHT22;69165;52.714;13.200;2023-05-20T13:04:26;18.00;99.90
79694;DHT22;69165;52.714;13.200;2023-05-20T13:06:28;18.00;99.90
79694;DHT22;69165;52.714;13.200;2023-05-20T13:08:29;18.10;99.90
79694;DHT22;69165;52.714;13.200;2023-05-20T13:10:31;18.20;99.90
79694;DHT22;69165;52.714;13.200;2023-05-20T13:12:33;18.30;99.90
79694;DHT22;69165;52.714;13.200;2023-05-20T13:14:33;18.40;99.90
79694;DHT22;69165;52.714;13.200;2023-05-20T13:16:34;18.50;99.90
79694;DHT22;69165;52.714;13.200;2023-05-20T13:18:36;18.40;99.90
79694;DHT22;69165;52.714;13.200;2023-05-20T13:20:37;18.20;99.90
79694;DHT22;69165;52.714;13.200;2023-05-20T13:22:38;18.30;99.90
79694;DHT22;69165;52.714;13.200;2023-05-20T13:24:40;18.10;99.90
79694;DHT22;69165;52.714;13.200;2023-05-20T13:26:42;18.10;99.90
79694;DHT22;69165;52.714;13.200;2023-05-20T13:28:44;17.90;99.90
79694;DHT22;69165;52.714;13.200;2023-05-20T13:30:45;17.90;99.90
79694;DHT22;69165;52.714;13.200;2023-05-20T13:32:47;17.90;99.90
79694;DHT22;69165;52.714;13.200;2023-05-20T13:34:48;18.00;99.90
79694;DHT22;69165;52.714;13.200;2023-05-20T13:36:50;18.10;99.90
79694;DHT22;69165;52.714;13.200;2023-05-20T13:40:55;18.30;99.90
79694;DHT22;69165;52.714;13.200;2023-05-20T13:42:56;18.30;99.90
79694;DHT22;69165;52.714;13.200;2023-05-20T13:44:58;18.40;99.90
79694;DHT22;69165;52.714;13.200;2023-05-20T13:46:59;18.40;99.90
79694;DHT22;69165;52.714;13.200;2023-05-20T13:49:00;18.60;99.90
79694;DHT22;69165;52.714;13.200;2023-05-20T13:51:02;18.70;99.90
79694;DHT22;69165;52.714;13.200;2023-05-20T13:53:03;18.80;99.90
79694;DHT22;69165;52.714;13.200;2023-05-20T13:55:04;18.80;99.90
79694;DHT22;69165;52.714;13.200;2023-05-20T13:57:06;18.90;99.90
79694;DHT22;69165;52.714;13.200;2023-05-20T13:59:08;18.80;99.90
79694;DHT22;69165;52.714;13.200;2023-05-20T14:01:11;18.80;99.90
79694;DHT22;69165;52.714;13.200;2023-05-20T14:03:12;18.80;99.90
79694;DHT22;69165;52.714;13.200;2023-05-20T14:05:13;18.90;99.90
79694;DHT22;69165;52.714;13.200;2023-05-20T14:07:16;18.80;99.90
79694;DHT22;69165;52.714;13.200;2023-05-20T14:11:20;18.80;99.90
79694;DHT22;69165;52.714;13.200;2023-05-20T14:13:22;18.90;99.90
79694;DHT22;69165;52.714;13.200;2023-05-20T14:15:23;18.90;99.90
79694;DHT22;69165;52.714;13.200;2023-05-20T14:17:24;18.80;99.90
79694;DHT22;69165;52.714;13.200;2023-05-20T14:19:26;18.50;99.90
79694;DHT22;69165;52.714;13.200;2023-05-20T14:21:27;18.50;99.90
79694;DHT22;69165;52.714;13.200;2023-05-20T14:23:29;18.40;99.90
79694;DHT22;69165;52.714;13.200;2023-05-20T14:25:30;18.40;99.90
79694;DHT22;69165;52.714;13.200;2023-05-20T14:27:32;18.50;99.90
79694;DHT22;69165;52.714;13.200;2023-05-20T14:29:33;18.70;99.90
79694;DHT22;69165;52.714;13.200;2023-05-20T14:31:34;18.80;99.90
79694;DHT22;69165;52.714;13.200;2023-05-20T14:33:36;18.80;99.90
79694;DHT22;69165;52.714;13.200;2023-05-20T14:35:37;18.80;99.90
79694;DHT22;69165;52.714;13.200;2023-05-20T14:37:38;18.90;99.90
79694;DHT22;69165;52.714;13.200;2023-05-20T14:39:40;18.90;99.90
79694;DHT22;69165;52.714;13.200;2023-05-20T14:41:41;18.80;99.90
79694;DHT22;69165;52.714;13.200;2023-05-20T14:43:42;18.90;99.90
79694;DHT22;69165;52.714;13.200;2023-05-20T14:45:44;19.00;99.90
79694;DHT22;69165;52.714;13.200;2023-05-20T14:47:45;19.00;99.90
79694;DHT22;69165;52.714;13.200;2023-05-20T14:49:46;19.00;99.90
79694;DHT22;69165;52.714;13.200;2023-05-20T14:51:48;19.10;99.90
79694;DHT22;69165;52.714;13.200;2023-05-20T14:53:50;19.10;99.90
79694;DHT22;69165;52.714;13.200;2023-05-20T14:55:51;19.10;99.90
79694;DHT22;69165;52.714;13.200;2023-05-20T14:57:52;19.10;99.90
79694;DHT22;69165;52.714;13.200;2023-05-20T14:59:54;19.00;99.90
79694;DHT22;69165;52.714;13.200;2023-05-20T15:01:55;19.00;99.90
79694;DHT22;69165;52.714;13.200;2023-05-20T15:03:56;19.00;99.90
79694;DHT22;69165;52.714;13.200;2023-05-20T15:05:58;19.10;99.90
79694;DHT22;69165;52.714;13.200;2023-05-20T15:07:59;19.20;99.90
79694;DHT22;69165;52.714;13.200;2023-05-20T15:10:01;19.30;99.90
79694;DHT22;69165;52.714;13.200;2023-05-20T15:12:02;19.30;99.90
79694;DHT22;69165;52.714;13.200;2023-05-20T15:14:03;19.40;99.90
79694;DHT22;69165;52.714;13.200;2023-05-20T15:16:05;19.40;99.90
79694;DHT22;69165;52.714;13.200;2023-05-20T15:18:06;19.40;99.90
79694;DHT22;69165;52.714;13.200;2023-05-20T15:20:08;19.20;99.90
79694;DHT22;69165;52.714;13.200;2023-05-20T15:22:10;19.30;99.90
79694;DHT22;69165;52.714;13.200;2023-05-20T15:24:12;19.20;99.90
79694;DHT22;69165;52.714;13.200;2023-05-20T15:26:14;19.20;99.90
79694;DHT22;69165;52.714;13.200;2023-05-20T15:28:15;19.20;99.90
79694;DHT22;69165;52.714;13.200;2023-05-20T15:30:16;19.30;99.90
79694;DHT22;69165;52.714;13.200;2023-05-20T15:32:17;19.40;99.90
79694;DHT22;69165;52.714;13.200;2023-05-20T15:34:19;19.50;99.90
79694;DHT22;69165;52.714;13.200;2023-05-20T15:36:20;19.50;99.90
79694;DHT22;69165;52.714;13.200;2023-05-20T15:38:21;19.50;99.90
79694;DHT22;69165;52.714;13.200;2023-05-20T15:40:23;19.60;99.90
79694;DHT22;69165;52.714;13.200;2023-05-20T15:42:25;19.50;99.90
79694;DHT22;69165;52.714;13.200;2023-05-20T15:44:26;19.50;99.90
79694;DHT22;69165;52.714;13.200;2023-05-20T15:46:27;19.50;99.90
79694;DHT22;69165;52.714;13.200;2023-05-20T15:48:29;19.50;99.90
79694;DHT22;69165;52.714;13.200;2023-05-20T15:50:31;19.60;99.90
79694;DHT22;69165;52.714;13.200;2023-05-20T15:52:32;19.60;99.90
79694;DHT22;69165;52.714;13.200;2023-05-20T15:54:33;19.60;99.90
79694;DHT22;69165;52.714;13.200;2023-05-20T15:56:36;19.60;99.90
79694;DHT22;69165;52.714;13.200;2023-05-20T16:00:54;19.50;99.90
79694;DHT22;69165;52.714;13.200;2023-05-20T16:02:55;19.50;99.90
79694;DHT22;69165;52.714;13.200;2023-05-20T16:04:56;19.50;99.90
79694;DHT22;69165;52.714;13.200;2023-05-20T16:06:57;19.50;99.90
79694;DHT22;69165;52.714;13.200;2023-05-20T16:08:59;19.50;99.90
79694;DHT22;69165;52.714;13.200;2023-05-20T16:11:00;19.50;99.90
79694;DHT22;69165;52.714;13.200;2023-05-20T16:13:01;19.40;99.90
79694;DHT22;69165;52.714;13.200;2023-05-20T16:15:04;19.40;99.90
79694;DHT22;69165;52.714;13.200;2023-05-20T16:17:05;19.40;99.90
79694;DHT22;69165;52.714;13.200;2023-05-20T16:19:07;19.20;99.90
79694;DHT22;69165;52.714;13.200;2023-05-20T16:21:09;19.20;99.90
79694;DHT22;69165;52.714;13.200;2023-05-20T16:23:10;19.10;99.90
79694;DHT22;69165;52.714;13.200;2023-05-20T16:25:12;19.00;99.90
79694;DHT22;69165;52.714;13.200;2023-05-20T16:27:14;19.00;99.90
79694;DHT22;69165;52.714;13.200;2023-05-20T16:29:15;19.00;99.90
79694;DHT22;69165;52.714;13.200;2023-05-20T16:31:16;19.00;99.90
79694;DHT22;69165;52.714;13.200;2023-05-20T16:33:17;19.10;99.90
79694;DHT22;69165;52.714;13.200;2023-05-20T16:35:19;19.10;99.90
79694;DHT22;69165;52.714;13.200;2023-05-20T16:37:20;19.00;99.90
79694;DHT22;69165;52.714;13.200;2023-05-20T16:39:22;19.10;99.90
79694;DHT22;69165;52.714;13.200;2023-05-20T16:41:24;19.10;99.90
79694;DHT22;69165;52.714;13.200;2023-05-20T16:43:25;19.10;99.90
79694;DHT22;69165;52.714;13.200;2023-05-20T16:45:26;19.10;99.90
79694;DHT22;69165;52.714;13.200;2023-05-20T16:47:28;19.20;99.90
79694;DHT22;69165;52.714;13.200;2023-05-20T16:51:34;19.20;99.90
79694;DHT22;69165;52.714;13.200;2023-05-20T16:53:36;19.10;99.90
79694;DHT22;69165;52.714;13.200;2023-05-20T16:55:37;19.10;99.90
79694;DHT22;69165;52.714;13.200;2023-05-20T16:57:38;19.10;99.90
79694;DHT22;69165;52.714;13.200;2023-05-20T16:59:39;19.10;99.90
79694;DHT22;69165;52.714;13.200;2023-05-20T17:03:53;19.10;99.90
79694;DHT22;69165;52.714;13.200;2023-05-20T17:05:54;19.10;99.90
79694;DHT22;69165;52.714;13.200;2023-05-20T17:07:55;19.10;99.90
79694;DHT22;69165;52.714;13.200;2023-05-20T17:09:57;19.10;99.90
79694;DHT22;69165;52.714;13.200;2023-05-20T17:11:58;19.10;99.90
79694;DHT22;69165;52.714;13.200;2023-05-20T17:14:00;19.10;99.90
79694;DHT22;69165;52.714;13.200;2023-05-20T17:16:01;19.10;99.90
79694;DHT22;69165;52.714;13.200;2023-05-20T17:18:03;19.00;99.90
79694;DHT22;69165;52.714;13.200;2023-05-20T17:20:05;19.00;99.90
79694;DHT22;69165;52.714;13.200;2023-05-20T17:22:07;19.00;99.90
79694;DHT22;69165;52.714;13.200;2023-05-20T17:24:08;19.10;99.90
79694;DHT22;69165;52.714;13.200;2023-05-20T17:26:09;19.10;99.90
79694;DHT22;69165;52.714;13.200;2023-05-20T17:28:11;19.10;99.90
79694;DHT22;69165;52.714;13.200;2023-05-20T17:30:12;19.10;99.90
79694;DHT22;69165;52.714;13.200;2023-05-20T17:32:13;19.10;99.90
79694;DHT22;69165;52.714;13.200;2023-05-20T17:34:15;19.10;99.90
79694;DHT22;69165;52.714;13.200;2023-05-20T17:36:17;19.10;99.90
79694;DHT22;69165;52.714;13.200;2023-05-20T17:38:19;19.00;99.90
79694;DHT22;69165;52.714;13.200;2023-05-20T17:40:21;18.90;99.90
79694;DHT22;69165;52.714;13.200;2023-05-20T17:42:22;19.00;99.90
79694;DHT22;69165;52.714;13.200;2023-05-20T17:44:23;18.90;99.90
79694;DHT22;69165;52.714;13.200;2023-05-20T17:46:25;18.80;99.90
79694;DHT22;69165;52.714;13.200;2023-05-20T17:48:26;18.80;99.90
79694;DHT22;69165;52.714;13.200;2023-05-20T17:50:28;18.80;99.90
79694;DHT22;69165;52.714;13.200;2023-05-20T17:52:29;18.70;99.90
79694;DHT22;69165;52.714;13.200;2023-05-20T17:54:30;18.60;99.90
79694;DHT22;69165;52.714;13.200;2023-05-20T17:56:31;18.60;99.90
79694;DHT22;69165;52.714;13.200;2023-05-20T17:58:32;18.60;99.90
79694;DHT22;69165;52.714;13.200;2023-05-20T18:00:34;18.60;99.90
79694;DHT22;69165;52.714;13.200;2023-05-20T18:02:36;18.50;99.90
79694;DHT22;69165;52.714;13.200;2023-05-20T18:04:37;18.50;99.90